sensor_id;sensor_type;location;lat;lon;timestamp;P1;durP1;ratioP1;P2;durP2;ratioP2
44456;SDS011;30159;49.316;8.558;2022-12-07T00:00:15;16.80;;;7.10;;
44456;SDS011;30159;49.316;8.558;2022-12-07T00:02:43;11.80;;;6.80;;
44456;SDS011;30159;49.316;8.558;2022-12-07T00:05:09;8.53;;;5.40;;
44456;SDS011;30159;49.316;8.558;2022-12-07T00:07:37;7.30;;;4.97;;
44456;SDS011;30159;49.316;8.558;2022-12-07T00:10:04;4.83;;;4.30;;
44456;SDS011;30159;49.316;8.558;2022-12-07T00:12:32;8.90;;;5.20;;
44456;SDS011;30159;49.316;8.558;2022-12-07T00:14:59;7.90;;;5.10;;
44456;SDS011;30159;49.316;8.558;2022-12-07T00:17:25;9.03;;;5.40;;
44456;SDS011;30159;49.316;8.558;2022-12-07T00:19:52;8.33;;;5.93;;
44456;SDS011;30159;49.316;8.558;2022-12-07T00:22:18;8.23;;;6.13;;
44456;SDS011;30159;49.316;8.558;2022-12-07T00:24:46;8.87;;;5.63;;
44456;SDS011;30159;49.316;8.558;2022-12-07T00:27:13;7.93;;;5.50;;
44456;SDS011;30159;49.316;8.558;2022-12-07T00:29:40;5.37;;;4.60;;
44456;SDS011;30159;49.316;8.558;2022-12-07T00:32:06;5.77;;;5.27;;
44456;SDS011;30159;49.316;8.558;2022-12-07T00:34:33;5.60;;;4.93;;
44456;SDS011;30159;49.316;8.558;2022-12-07T00:36:59;8.10;;;5.60;;
44456;SDS011;30159;49.316;8.558;2022-12-07T00:39:26;8.67;;;5.27;;
44456;SDS011;30159;49.316;8.558;2022-12-07T00:41:54;5.03;;;4.53;;
44456;SDS011;30159;49.316;8.558;2022-12-07T00:44:21;6.33;;;5.37;;
44456;SDS011;30159;49.316;8.558;2022-12-07T00:46:47;7.87;;;5.40;;
44456;SDS011;30159;49.316;8.558;2022-12-07T00:49:14;7.07;;;5.50;;
44456;SDS011;30159;49.316;8.558;2022-12-07T00:51:41;7.90;;;6.00;;
44456;SDS011;30159;49.316;8.558;2022-12-07T00:54:07;7.70;;;5.23;;
44456;SDS011;30159;49.316;8.558;2022-12-07T00:56:34;6.87;;;4.50;;
44456;SDS011;30159;49.316;8.558;2022-12-07T00:59:02;12.20;;;4.67;;
44456;SDS011;30159;49.316;8.558;2022-12-07T01:01:30;5.50;;;4.37;;
44456;SDS011;30159;49.316;8.558;2022-12-07T01:03:58;7.70;;;5.03;;
44456;SDS011;30159;49.316;8.558;2022-12-07T01:06:26;6.33;;;5.03;;
44456;SDS011;30159;49.316;8.558;2022-12-07T01:08:53;8.60;;;6.20;;
44456;SDS011;30159;49.316;8.558;2022-12-07T01:11:20;5.90;;;4.73;;
44456;SDS011;30159;49.316;8.558;2022-12-07T01:13:49;9.00;;;5.63;;
44456;SDS011;30159;49.316;8.558;2022-12-07T01:16:18;6.30;;;4.30;;
44456;SDS011;30159;49.316;8.558;2022-12-07T01:18:46;7.07;;;5.50;;
44456;SDS011;30159;49.316;8.558;2022-12-07T01:21:15;38.70;;;16.70;;
44456;SDS011;30159;49.316;8.558;2022-12-07T01:23:43;30.03;;;15.00;;
44456;SDS011;30159;49.316;8.558;2022-12-07T01:26:11;24.20;;;11.00;;
44456;SDS011;30159;49.316;8.558;2022-12-07T01:28:39;22.60;;;10.57;;
44456;SDS011;30159;49.316;8.558;2022-12-07T01:31:07;21.03;;;10.77;;
44456;SDS011;30159;49.316;8.558;2022-12-07T01:33:38;22.63;;;10.90;;
44456;SDS011;30159;49.316;8.558;2022-12-07T01:36:08;21.50;;;11.07;;
44456;SDS011;30159;49.316;8.558;2022-12-07T01:38:39;22.27;;;10.37;;
44456;SDS011;30159;49.316;8.558;2022-12-07T01:41:06;12.20;;;7.03;;
44456;SDS011;30159;49.316;8.558;2022-12-07T01:43:33;12.00;;;6.80;;
44456;SDS011;30159;49.316;8.558;2022-12-07T01:46:00;7.97;;;6.10;;
44456;SDS011;30159;49.316;8.558;2022-12-07T01:48:28;8.17;;;4.83;;
44456;SDS011;30159;49.316;8.558;2022-12-07T01:51:01;6.03;;;4.90;;
44456;SDS011;30159;49.316;8.558;2022-12-07T01:53:34;5.70;;;5.13;;
44456;SDS011;30159;49.316;8.558;2022-12-07T01:56:04;4.70;;;4.30;;
44456;SDS011;30159;49.316;8.558;2022-12-07T01:58:32;8.70;;;5.30;;
44456;SDS011;30159;49.316;8.558;2022-12-07T02:00:59;6.07;;;4.97;;
44456;SDS011;30159;49.316;8.558;2022-12-07T02:03:27;6.00;;;5.30;;
44456;SDS011;30159;49.316;8.558;2022-12-07T02:05:58;7.33;;;5.50;;
44456;SDS011;30159;49.316;8.558;2022-12-07T02:08:27;8.63;;;5.63;;
44456;SDS011;30159;49.316;8.558;2022-12-07T02:10:54;5.43;;;4.93;;
44456;SDS011;30159;49.316;8.558;2022-12-07T02:13:21;5.67;;;4.50;;
44456;SDS011;30159;49.316;8.558;2022-12-07T02:15:55;6.53;;;5.60;;
44456;SDS011;30159;49.316;8.558;2022-12-07T02:18:35;8.77;;;6.03;;
44456;SDS011;30159;49.316;8.558;2022-12-07T02:21:12;10.37;;;5.30;;
44456;SDS011;30159;49.316;8.558;2022-12-07T02:23:51;7.13;;;5.27;;
44456;SDS011;30159;49.316;8.558;2022-12-07T02:27:01;7.33;;;6.00;;
44456;SDS011;30159;49.316;8.558;2022-12-07T02:29:52;7.20;;;5.27;;
44456;SDS011;30159;49.316;8.558;2022-12-07T02:32:25;6.20;;;4.70;;
44456;SDS011;30159;49.316;8.558;2022-12-07T02:34:58;5.60;;;5.03;;
44456;SDS011;30159;49.316;8.558;2022-12-07T02:37:33;5.47;;;4.93;;
44456;SDS011;30159;49.316;8.558;2022-12-07T02:40:06;7.00;;;4.67;;
44456;SDS011;30159;49.316;8.558;2022-12-07T02:42:37;8.20;;;5.77;;
44456;SDS011;30159;49.316;8.558;2022-12-07T02:45:08;6.73;;;5.20;;
44456;SDS011;30159;49.316;8.558;2022-12-07T02:47:39;5.33;;;4.43;;
44456;SDS011;30159;49.316;8.558;2022-12-07T02:50:07;5.23;;;4.80;;
44456;SDS011;30159;49.316;8.558;2022-12-07T02:52:35;7.67;;;5.80;;
44456;SDS011;30159;49.316;8.558;2022-12-07T02:55:02;8.83;;;5.60;;
44456;SDS011;30159;49.316;8.558;2022-12-07T02:57:34;6.57;;;5.17;;
44456;SDS011;30159;49.316;8.558;2022-12-07T03:00:13;11.60;;;5.40;;
44456;SDS011;30159;49.316;8.558;2022-12-07T03:02:46;11.77;;;7.17;;
44456;SDS011;30159;49.316;8.558;2022-12-07T03:05:21;10.90;;;5.57;;
44456;SDS011;30159;49.316;8.558;2022-12-07T03:07:59;9.53;;;5.87;;
44456;SDS011;30159;49.316;8.558;2022-12-07T03:10:33;9.13;;;6.33;;
44456;SDS011;30159;49.316;8.558;2022-12-07T03:13:07;8.30;;;6.10;;
44456;SDS011;30159;49.316;8.558;2022-12-07T03:15:41;10.83;;;6.67;;
44456;SDS011;30159;49.316;8.558;2022-12-07T03:18:12;10.60;;;7.27;;
44456;SDS011;30159;49.316;8.558;2022-12-07T03:20:42;8.63;;;5.90;;
44456;SDS011;30159;49.316;8.558;2022-12-07T03:23:11;12.93;;;7.20;;
44456;SDS011;30159;49.316;8.558;2022-12-07T03:25:41;8.60;;;5.97;;
44456;SDS011;30159;49.316;8.558;2022-12-07T03:28:13;8.80;;;6.47;;
44456;SDS011;30159;49.316;8.558;2022-12-07T03:30:44;8.20;;;6.27;;
44456;SDS011;30159;49.316;8.558;2022-12-07T03:33:16;7.97;;;5.87;;
44456;SDS011;30159;49.316;8.558;2022-12-07T03:35:47;7.50;;;5.70;;
44456;SDS011;30159;49.316;8.558;2022-12-07T03:38:18;8.30;;;6.40;;
44456;SDS011;30159;49.316;8.558;2022-12-07T03:40:48;6.73;;;5.73;;
44456;SDS011;30159;49.316;8.558;2022-12-07T03:43:19;8.13;;;5.33;;
44456;SDS011;30159;49.316;8.558;2022-12-07T03:45:51;6.37;;;5.33;;
44456;SDS011;30159;49.316;8.558;2022-12-07T03:48:25;6.93;;;5.10;;
44456;SDS011;30159;49.316;8.558;2022-12-07T03:50:59;8.93;;;6.37;;
44456;SDS011;30159;49.316;8.558;2022-12-07T03:53:34;6.00;;;5.40;;
44456;SDS011;30159;49.316;8.558;2022-12-07T03:56:05;6.90;;;5.43;;
44456;SDS011;30159;49.316;8.558;2022-12-07T03:58:34;6.93;;;5.30;;
44456;SDS011;30159;49.316;8.558;2022-12-07T04:01:03;7.63;;;5.83;;
44456;SDS011;30159;49.316;8.558;2022-12-07T04:03:29;7.50;;;6.33;;
44456;SDS011;30159;49.316;8.558;2022-12-07T04:05:56;8.70;;;6.03;;
44456;SDS011;30159;49.316;8.558;2022-12-07T04:08:23;6.63;;;5.93;;
44456;SDS011;30159;49.316;8.558;2022-12-07T04:10:50;5.73;;;5.13;;
44456;SDS011;30159;49.316;8.558;2022-12-07T04:13:17;6.03;;;4.80;;
44456;SDS011;30159;49.316;8.558;2022-12-07T04:15:44;6.60;;;5.10;;
44456;SDS011;30159;49.316;8.558;2022-12-07T04:18:11;6.27;;;5.00;;
44456;SDS011;30159;49.316;8.558;2022-12-07T04:20:38;7.77;;;5.20;;
44456;SDS011;30159;49.316;8.558;2022-12-07T04:23:05;6.10;;;4.80;;
44456;SDS011;30159;49.316;8.558;2022-12-07T04:25:31;11.80;;;5.03;;
44456;SDS011;30159;49.316;8.558;2022-12-07T04:27:58;8.40;;;5.37;;
44456;SDS011;30159;49.316;8.558;2022-12-07T04:30:24;7.63;;;5.17;;
44456;SDS011;30159;49.316;8.558;2022-12-07T04:32:51;5.30;;;4.80;;
44456;SDS011;30159;49.316;8.558;2022-12-07T04:35:19;7.30;;;4.20;;
44456;SDS011;30159;49.316;8.558;2022-12-07T04:37:46;7.70;;;4.30;;
44456;SDS011;30159;49.316;8.558;2022-12-07T04:40:13;8.17;;;6.33;;
44456;SDS011;30159;49.316;8.558;2022-12-07T04:42:39;10.30;;;7.50;;
44456;SDS011;30159;49.316;8.558;2022-12-07T04:45:06;6.83;;;6.13;;
44456;SDS011;30159;49.316;8.558;2022-12-07T04:47:34;7.47;;;5.57;;
44456;SDS011;30159;49.316;8.558;2022-12-07T04:50:01;8.33;;;6.20;;
44456;SDS011;30159;49.316;8.558;2022-12-07T04:52:29;9.07;;;7.30;;
44456;SDS011;30159;49.316;8.558;2022-12-07T04:54:55;6.97;;;6.27;;
44456;SDS011;30159;49.316;8.558;2022-12-07T04:57:22;9.43;;;5.60;;
44456;SDS011;30159;49.316;8.558;2022-12-07T04:59:49;6.53;;;5.93;;
44456;SDS011;30159;49.316;8.558;2022-12-07T05:02:15;7.13;;;5.93;;
44456;SDS011;30159;49.316;8.558;2022-12-07T05:04:42;7.30;;;5.70;;
44456;SDS011;30159;49.316;8.558;2022-12-07T05:07:09;6.37;;;5.77;;
44456;SDS011;30159;49.316;8.558;2022-12-07T05:09:36;7.87;;;5.53;;
44456;SDS011;30159;49.316;8.558;2022-12-07T05:12:03;9.80;;;6.03;;
44456;SDS011;30159;49.316;8.558;2022-12-07T05:14:30;8.37;;;6.07;;
44456;SDS011;30159;49.316;8.558;2022-12-07T05:16:56;9.63;;;6.00;;
44456;SDS011;30159;49.316;8.558;2022-12-07T05:19:23;7.70;;;5.80;;
44456;SDS011;30159;49.316;8.558;2022-12-07T05:21:51;7.33;;;6.57;;
44456;SDS011;30159;49.316;8.558;2022-12-07T05:24:17;10.03;;;7.23;;
44456;SDS011;30159;49.316;8.558;2022-12-07T05:26:45;9.43;;;6.47;;
44456;SDS011;30159;49.316;8.558;2022-12-07T05:29:13;9.23;;;6.63;;
44456;SDS011;30159;49.316;8.558;2022-12-07T05:31:41;9.57;;;5.93;;
44456;SDS011;30159;49.316;8.558;2022-12-07T05:34:08;9.93;;;5.73;;
44456;SDS011;30159;49.316;8.558;2022-12-07T05:36:34;11.60;;;6.63;;
44456;SDS011;30159;49.316;8.558;2022-12-07T05:39:02;11.50;;;7.93;;
44456;SDS011;30159;49.316;8.558;2022-12-07T05:41:29;10.73;;;7.87;;
44456;SDS011;30159;49.316;8.558;2022-12-07T05:44:14;8.60;;;6.83;;
44456;SDS011;30159;49.316;8.558;2022-12-07T05:46:41;8.13;;;6.60;;
44456;SDS011;30159;49.316;8.558;2022-12-07T05:49:07;9.90;;;6.20;;
44456;SDS011;30159;49.316;8.558;2022-12-07T05:51:34;9.37;;;6.37;;
44456;SDS011;30159;49.316;8.558;2022-12-07T05:54:01;11.63;;;6.00;;
44456;SDS011;30159;49.316;8.558;2022-12-07T05:56:27;8.90;;;6.80;;
44456;SDS011;30159;49.316;8.558;2022-12-07T05:58:54;9.50;;;6.57;;
44456;SDS011;30159;49.316;8.558;2022-12-07T06:01:40;7.37;;;5.53;;
44456;SDS011;30159;49.316;8.558;2022-12-07T06:04:07;8.07;;;5.30;;
44456;SDS011;30159;49.316;8.558;2022-12-07T06:06:33;9.70;;;6.80;;
44456;SDS011;30159;49.316;8.558;2022-12-07T06:09:00;12.87;;;6.67;;
44456;SDS011;30159;49.316;8.558;2022-12-07T06:11:27;8.40;;;6.40;;
44456;SDS011;30159;49.316;8.558;2022-12-07T06:14:11;12.57;;;7.17;;
44456;SDS011;30159;49.316;8.558;2022-12-07T06:16:39;10.73;;;6.33;;
44456;SDS011;30159;49.316;8.558;2022-12-07T06:19:06;8.50;;;6.20;;
44456;SDS011;30159;49.316;8.558;2022-12-07T06:21:32;9.67;;;6.90;;
44456;SDS011;30159;49.316;8.558;2022-12-07T06:23:59;10.87;;;7.43;;
44456;SDS011;30159;49.316;8.558;2022-12-07T06:26:25;5.83;;;5.10;;
44456;SDS011;30159;49.316;8.558;2022-12-07T06:28:52;8.50;;;6.60;;
44456;SDS011;30159;49.316;8.558;2022-12-07T06:31:19;8.93;;;6.07;;
44456;SDS011;30159;49.316;8.558;2022-12-07T06:33:47;7.13;;;5.50;;
44456;SDS011;30159;49.316;8.558;2022-12-07T06:36:13;6.50;;;5.17;;
44456;SDS011;30159;49.316;8.558;2022-12-07T06:38:40;6.83;;;4.77;;
44456;SDS011;30159;49.316;8.558;2022-12-07T06:41:07;7.67;;;4.90;;
44456;SDS011;30159;49.316;8.558;2022-12-07T06:43:33;10.60;;;6.77;;
44456;SDS011;30159;49.316;8.558;2022-12-07T06:46:00;6.93;;;5.97;;
44456;SDS011;30159;49.316;8.558;2022-12-07T06:48:26;7.27;;;5.30;;
44456;SDS011;30159;49.316;8.558;2022-12-07T06:50:54;12.60;;;7.63;;
44456;SDS011;30159;49.316;8.558;2022-12-07T06:53:21;9.03;;;6.70;;
44456;SDS011;30159;49.316;8.558;2022-12-07T06:55:48;9.50;;;7.10;;
44456;SDS011;30159;49.316;8.558;2022-12-07T06:58:14;12.93;;;8.30;;
44456;SDS011;30159;49.316;8.558;2022-12-07T07:00:41;7.87;;;6.03;;
44456;SDS011;30159;49.316;8.558;2022-12-07T07:03:08;8.13;;;6.27;;
44456;SDS011;30159;49.316;8.558;2022-12-07T07:05:35;8.30;;;5.73;;
44456;SDS011;30159;49.316;8.558;2022-12-07T07:08:03;7.30;;;5.60;;
44456;SDS011;30159;49.316;8.558;2022-12-07T07:10:30;18.37;;;12.23;;
44456;SDS011;30159;49.316;8.558;2022-12-07T07:12:57;11.23;;;8.90;;
44456;SDS011;30159;49.316;8.558;2022-12-07T07:15:23;12.20;;;7.13;;
44456;SDS011;30159;49.316;8.558;2022-12-07T07:17:50;10.87;;;7.13;;
44456;SDS011;30159;49.316;8.558;2022-12-07T07:20:16;10.90;;;7.40;;
44456;SDS011;30159;49.316;8.558;2022-12-07T07:22:43;10.47;;;6.07;;
44456;SDS011;30159;49.316;8.558;2022-12-07T07:25:11;8.07;;;5.90;;
44456;SDS011;30159;49.316;8.558;2022-12-07T07:27:38;12.37;;;6.03;;
44456;SDS011;30159;49.316;8.558;2022-12-07T07:30:05;8.67;;;6.47;;
44456;SDS011;30159;49.316;8.558;2022-12-07T07:32:33;9.30;;;6.10;;
44456;SDS011;30159;49.316;8.558;2022-12-07T07:35:00;6.90;;;5.50;;
44456;SDS011;30159;49.316;8.558;2022-12-07T07:37:27;8.20;;;6.20;;
44456;SDS011;30159;49.316;8.558;2022-12-07T07:39:53;10.90;;;7.07;;
44456;SDS011;30159;49.316;8.558;2022-12-07T07:42:21;9.63;;;6.13;;
44456;SDS011;30159;49.316;8.558;2022-12-07T07:44:48;10.10;;;6.07;;
44456;SDS011;30159;49.316;8.558;2022-12-07T07:47:14;8.03;;;5.70;;
44456;SDS011;30159;49.316;8.558;2022-12-07T07:49:41;8.67;;;5.70;;
44456;SDS011;30159;49.316;8.558;2022-12-07T07:52:08;9.57;;;6.33;;
44456;SDS011;30159;49.316;8.558;2022-12-07T07:54:34;10.63;;;5.97;;
44456;SDS011;30159;49.316;8.558;2022-12-07T07:57:01;13.70;;;6.40;;
44456;SDS011;30159;49.316;8.558;2022-12-07T07:59:29;12.37;;;6.10;;
44456;SDS011;30159;49.316;8.558;2022-12-07T08:01:55;12.27;;;7.40;;
44456;SDS011;30159;49.316;8.558;2022-12-07T08:04:22;9.20;;;6.17;;
44456;SDS011;30159;49.316;8.558;2022-12-07T08:06:49;8.77;;;5.40;;
44456;SDS011;30159;49.316;8.558;2022-12-07T08:09:15;8.63;;;7.27;;
44456;SDS011;30159;49.316;8.558;2022-12-07T08:11:42;11.20;;;6.13;;
44456;SDS011;30159;49.316;8.558;2022-12-07T08:14:09;5.67;;;5.00;;
44456;SDS011;30159;49.316;8.558;2022-12-07T08:16:38;12.03;;;6.90;;
44456;SDS011;30159;49.316;8.558;2022-12-07T08:19:05;10.53;;;5.97;;
44456;SDS011;30159;49.316;8.558;2022-12-07T08:21:31;10.87;;;5.80;;
44456;SDS011;30159;49.316;8.558;2022-12-07T08:23:58;10.70;;;6.40;;
44456;SDS011;30159;49.316;8.558;2022-12-07T08:26:25;8.63;;;6.13;;
44456;SDS011;30159;49.316;8.558;2022-12-07T08:28:52;10.50;;;6.87;;
44456;SDS011;30159;49.316;8.558;2022-12-07T08:31:19;7.10;;;5.63;;
44456;SDS011;30159;49.316;8.558;2022-12-07T08:33:47;9.77;;;6.83;;
44456;SDS011;30159;49.316;8.558;2022-12-07T08:36:14;10.30;;;6.60;;
44456;SDS011;30159;49.316;8.558;2022-12-07T08:38:41;10.13;;;7.00;;
44456;SDS011;30159;49.316;8.558;2022-12-07T08:41:08;12.07;;;7.70;;
44456;SDS011;30159;49.316;8.558;2022-12-07T08:43:35;9.20;;;5.57;;
44456;SDS011;30159;49.316;8.558;2022-12-07T08:46:04;9.93;;;6.53;;
44456;SDS011;30159;49.316;8.558;2022-12-07T08:48:34;11.80;;;7.30;;
44456;SDS011;30159;49.316;8.558;2022-12-07T08:51:05;8.50;;;6.00;;
44456;SDS011;30159;49.316;8.558;2022-12-07T08:53:32;13.30;;;7.23;;
44456;SDS011;30159;49.316;8.558;2022-12-07T08:55:59;8.80;;;5.93;;
44456;SDS011;30159;49.316;8.558;2022-12-07T08:58:26;10.63;;;6.73;;
44456;SDS011;30159;49.316;8.558;2022-12-07T09:00:55;11.20;;;7.20;;
44456;SDS011;30159;49.316;8.558;2022-12-07T09:03:22;10.83;;;5.87;;
44456;SDS011;30159;49.316;8.558;2022-12-07T09:05:48;11.30;;;7.37;;
44456;SDS011;30159;49.316;8.558;2022-12-07T09:08:16;8.97;;;6.43;;
44456;SDS011;30159;49.316;8.558;2022-12-07T09:10:43;10.17;;;7.10;;
44456;SDS011;30159;49.316;8.558;2022-12-07T09:13:10;10.70;;;6.57;;
44456;SDS011;30159;49.316;8.558;2022-12-07T09:15:37;11.80;;;6.93;;
44456;SDS011;30159;49.316;8.558;2022-12-07T09:18:03;10.87;;;7.40;;
44456;SDS011;30159;49.316;8.558;2022-12-07T09:20:30;9.10;;;6.93;;
44456;SDS011;30159;49.316;8.558;2022-12-07T09:22:57;11.33;;;7.43;;
44456;SDS011;30159;49.316;8.558;2022-12-07T09:25:25;10.97;;;6.93;;
44456;SDS011;30159;49.316;8.558;2022-12-07T09:27:55;11.60;;;6.80;;
44456;SDS011;30159;49.316;8.558;2022-12-07T09:30:22;10.63;;;6.90;;
44456;SDS011;30159;49.316;8.558;2022-12-07T09:32:48;12.50;;;7.50;;
44456;SDS011;30159;49.316;8.558;2022-12-07T09:35:15;7.30;;;6.10;;
44456;SDS011;30159;49.316;8.558;2022-12-07T09:37:42;10.47;;;6.40;;
44456;SDS011;30159;49.316;8.558;2022-12-07T09:40:08;9.60;;;6.80;;
44456;SDS011;30159;49.316;8.558;2022-12-07T09:42:37;12.17;;;8.20;;
44456;SDS011;30159;49.316;8.558;2022-12-07T09:45:06;11.83;;;8.03;;
44456;SDS011;30159;49.316;8.558;2022-12-07T09:47:38;9.90;;;6.63;;
44456;SDS011;30159;49.316;8.558;2022-12-07T09:50:06;9.23;;;7.30;;
44456;SDS011;30159;49.316;8.558;2022-12-07T09:52:38;13.90;;;7.00;;
44456;SDS011;30159;49.316;8.558;2022-12-07T09:55:09;9.60;;;6.83;;
44456;SDS011;30159;49.316;8.558;2022-12-07T09:57:39;15.97;;;7.30;;
44456;SDS011;30159;49.316;8.558;2022-12-07T10:00:09;10.37;;;6.93;;
44456;SDS011;30159;49.316;8.558;2022-12-07T10:02:39;9.43;;;6.50;;
44456;SDS011;30159;49.316;8.558;2022-12-07T10:05:10;11.07;;;6.60;;
44456;SDS011;30159;49.316;8.558;2022-12-07T10:07:39;9.70;;;6.97;;
44456;SDS011;30159;49.316;8.558;2022-12-07T10:10:12;13.50;;;7.77;;
44456;SDS011;30159;49.316;8.558;2022-12-07T10:12:53;8.67;;;6.60;;
44456;SDS011;30159;49.316;8.558;2022-12-07T10:15:40;10.73;;;6.70;;
44456;SDS011;30159;49.316;8.558;2022-12-07T10:18:19;9.20;;;6.63;;
44456;SDS011;30159;49.316;8.558;2022-12-07T10:20:59;9.70;;;7.50;;
44456;SDS011;30159;49.316;8.558;2022-12-07T10:23:33;9.23;;;6.30;;
44456;SDS011;30159;49.316;8.558;2022-12-07T10:26:06;6.93;;;6.10;;
44456;SDS011;30159;49.316;8.558;2022-12-07T10:28:47;11.80;;;6.77;;
44456;SDS011;30159;49.316;8.558;2022-12-07T10:31:15;8.33;;;7.37;;
44456;SDS011;30159;49.316;8.558;2022-12-07T10:33:48;10.83;;;7.53;;
44456;SDS011;30159;49.316;8.558;2022-12-07T10:36:18;11.50;;;7.57;;
44456;SDS011;30159;49.316;8.558;2022-12-07T10:38:47;9.90;;;6.97;;
44456;SDS011;30159;49.316;8.558;2022-12-07T10:41:15;10.00;;;6.83;;
44456;SDS011;30159;49.316;8.558;2022-12-07T10:43:50;10.73;;;7.13;;
44456;SDS011;30159;49.316;8.558;2022-12-07T10:46:32;10.43;;;6.60;;
44456;SDS011;30159;49.316;8.558;2022-12-07T10:49:36;8.40;;;6.50;;
44456;SDS011;30159;49.316;8.558;2022-12-07T10:52:25;11.40;;;7.03;;
44456;SDS011;30159;49.316;8.558;2022-12-07T10:55:08;8.03;;;5.63;;
44456;SDS011;30159;49.316;8.558;2022-12-07T10:57:46;12.17;;;7.10;;
44456;SDS011;30159;49.316;8.558;2022-12-07T11:00:24;8.00;;;6.47;;
44456;SDS011;30159;49.316;8.558;2022-12-07T11:02:59;12.90;;;7.80;;
44456;SDS011;30159;49.316;8.558;2022-12-07T11:05:45;11.53;;;7.47;;
44456;SDS011;30159;49.316;8.558;2022-12-07T11:08:20;12.03;;;7.27;;
44456;SDS011;30159;49.316;8.558;2022-12-07T11:10:58;9.33;;;6.37;;
44456;SDS011;30159;49.316;8.558;2022-12-07T11:13:34;10.30;;;6.70;;
44456;SDS011;30159;49.316;8.558;2022-12-07T11:16:16;8.17;;;6.40;;
44456;SDS011;30159;49.316;8.558;2022-12-07T11:18:52;9.10;;;6.50;;
44456;SDS011;30159;49.316;8.558;2022-12-07T11:21:31;8.60;;;6.73;;
44456;SDS011;30159;49.316;8.558;2022-12-07T11:24:06;9.60;;;6.70;;
44456;SDS011;30159;49.316;8.558;2022-12-07T11:26:46;7.93;;;6.90;;
44456;SDS011;30159;49.316;8.558;2022-12-07T11:29:28;8.20;;;6.43;;
44456;SDS011;30159;49.316;8.558;2022-12-07T11:32:13;8.60;;;6.47;;
44456;SDS011;30159;49.316;8.558;2022-12-07T11:34:46;7.83;;;6.50;;
44456;SDS011;30159;49.316;8.558;2022-12-07T11:37:24;5.80;;;5.20;;
44456;SDS011;30159;49.316;8.558;2022-12-07T11:39:57;11.67;;;7.40;;
44456;SDS011;30159;49.316;8.558;2022-12-07T11:42:29;8.00;;;5.53;;
44456;SDS011;30159;49.316;8.558;2022-12-07T11:45:00;8.13;;;6.60;;
44456;SDS011;30159;49.316;8.558;2022-12-07T11:47:38;6.07;;;5.30;;
44456;SDS011;30159;49.316;8.558;2022-12-07T11:50:14;11.53;;;6.83;;
44456;SDS011;30159;49.316;8.558;2022-12-07T11:52:51;6.63;;;5.90;;
44456;SDS011;30159;49.316;8.558;2022-12-07T11:55:21;9.47;;;6.93;;
44456;SDS011;30159;49.316;8.558;2022-12-07T11:57:56;8.27;;;6.17;;
44456;SDS011;30159;49.316;8.558;2022-12-07T12:00:28;8.60;;;6.23;;
44456;SDS011;30159;49.316;8.558;2022-12-07T12:02:57;11.40;;;7.40;;
44456;SDS011;30159;49.316;8.558;2022-12-07T12:05:29;10.33;;;7.33;;
44456;SDS011;30159;49.316;8.558;2022-12-07T12:07:59;11.80;;;7.13;;
44456;SDS011;30159;49.316;8.558;2022-12-07T12:10:35;8.60;;;6.17;;
44456;SDS011;30159;49.316;8.558;2022-12-07T12:13:16;10.97;;;6.80;;
44456;SDS011;30159;49.316;8.558;2022-12-07T12:15:58;11.63;;;6.87;;
44456;SDS011;30159;49.316;8.558;2022-12-07T12:18:41;8.33;;;6.20;;
44456;SDS011;30159;49.316;8.558;2022-12-07T12:21:20;14.33;;;6.70;;
44456;SDS011;30159;49.316;8.558;2022-12-07T12:23:55;18.50;;;8.00;;
44456;SDS011;30159;49.316;8.558;2022-12-07T12:26:25;9.30;;;6.03;;
44456;SDS011;30159;49.316;8.558;2022-12-07T12:28:55;8.27;;;5.70;;
44456;SDS011;30159;49.316;8.558;2022-12-07T12:31:32;12.30;;;7.30;;
44456;SDS011;30159;49.316;8.558;2022-12-07T12:34:04;11.50;;;7.30;;
44456;SDS011;30159;49.316;8.558;2022-12-07T12:36:57;9.03;;;6.17;;
44456;SDS011;30159;49.316;8.558;2022-12-07T12:39:24;12.30;;;7.07;;
44456;SDS011;30159;49.316;8.558;2022-12-07T12:41:55;12.30;;;7.07;;
44456;SDS011;30159;49.316;8.558;2022-12-07T12:44:38;8.90;;;6.33;;
44456;SDS011;30159;49.316;8.558;2022-12-07T12:47:37;10.30;;;7.77;;
44456;SDS011;30159;49.316;8.558;2022-12-07T12:50:24;15.47;;;9.17;;
44456;SDS011;30159;49.316;8.558;2022-12-07T12:52:53;19.07;;;10.00;;
44456;SDS011;30159;49.316;8.558;2022-12-07T12:55:43;13.50;;;8.77;;
44456;SDS011;30159;49.316;8.558;2022-12-07T12:58:39;14.23;;;9.10;;
44456;SDS011;30159;49.316;8.558;2022-12-07T13:03:59;8.43;;;7.10;;
44456;SDS011;30159;49.316;8.558;2022-12-07T13:06:35;8.73;;;6.77;;
44456;SDS011;30159;49.316;8.558;2022-12-07T13:09:03;10.20;;;6.73;;
44456;SDS011;30159;49.316;8.558;2022-12-07T13:11:31;10.30;;;7.67;;
44456;SDS011;30159;49.316;8.558;2022-12-07T13:17:07;8.70;;;5.90;;
44456;SDS011;30159;49.316;8.558;2022-12-07T13:25:18;9.07;;;5.97;;
44456;SDS011;30159;49.316;8.558;2022-12-07T13:27:52;10.27;;;7.40;;
44456;SDS011;30159;49.316;8.558;2022-12-07T13:30:23;7.33;;;6.07;;
44456;SDS011;30159;49.316;8.558;2022-12-07T13:32:53;9.90;;;6.53;;
44456;SDS011;30159;49.316;8.558;2022-12-07T13:35:29;8.60;;;7.10;;
44456;SDS011;30159;49.316;8.558;2022-12-07T13:37:59;8.80;;;6.80;;
44456;SDS011;30159;49.316;8.558;2022-12-07T13:40:30;8.00;;;6.40;;
44456;SDS011;30159;49.316;8.558;2022-12-07T13:42:57;6.77;;;6.00;;
44456;SDS011;30159;49.316;8.558;2022-12-07T13:45:25;10.50;;;6.20;;
44456;SDS011;30159;49.316;8.558;2022-12-07T13:48:14;10.90;;;7.03;;
44456;SDS011;30159;49.316;8.558;2022-12-07T13:50:48;8.10;;;6.67;;
44456;SDS011;30159;49.316;8.558;2022-12-07T13:53:20;10.50;;;6.07;;
44456;SDS011;30159;49.316;8.558;2022-12-07T13:55:47;8.70;;;7.27;;
44456;SDS011;30159;49.316;8.558;2022-12-07T13:58:14;6.37;;;5.50;;
44456;SDS011;30159;49.316;8.558;2022-12-07T14:00:41;9.30;;;6.53;;
44456;SDS011;30159;49.316;8.558;2022-12-07T14:06:22;6.50;;;4.90;;
44456;SDS011;30159;49.316;8.558;2022-12-07T14:11:42;6.87;;;5.10;;
44456;SDS011;30159;49.316;8.558;2022-12-07T14:14:10;8.73;;;5.13;;
44456;SDS011;30159;49.316;8.558;2022-12-07T14:16:41;4.80;;;4.17;;
44456;SDS011;30159;49.316;8.558;2022-12-07T14:19:39;5.20;;;4.70;;
44456;SDS011;30159;49.316;8.558;2022-12-07T14:22:08;4.67;;;3.60;;
44456;SDS011;30159;49.316;8.558;2022-12-07T14:24:45;4.97;;;4.30;;
44456;SDS011;30159;49.316;8.558;2022-12-07T14:27:18;5.63;;;3.77;;
44456;SDS011;30159;49.316;8.558;2022-12-07T14:29:46;2.90;;;2.70;;
44456;SDS011;30159;49.316;8.558;2022-12-07T14:32:17;5.27;;;3.53;;
44456;SDS011;30159;49.316;8.558;2022-12-07T14:34:57;4.70;;;3.13;;
44456;SDS011;30159;49.316;8.558;2022-12-07T14:37:27;5.30;;;4.23;;
44456;SDS011;30159;49.316;8.558;2022-12-07T14:39:56;9.60;;;4.47;;
44456;SDS011;30159;49.316;8.558;2022-12-07T14:42:24;3.87;;;3.43;;
44456;SDS011;30159;49.316;8.558;2022-12-07T14:44:53;4.60;;;3.93;;
44456;SDS011;30159;49.316;8.558;2022-12-07T14:47:21;6.67;;;4.07;;
44456;SDS011;30159;49.316;8.558;2022-12-07T14:49:48;5.93;;;4.57;;
44456;SDS011;30159;49.316;8.558;2022-12-07T14:52:16;5.97;;;4.17;;
44456;SDS011;30159;49.316;8.558;2022-12-07T14:54:45;6.10;;;4.07;;
44456;SDS011;30159;49.316;8.558;2022-12-07T14:57:13;3.57;;;3.30;;
44456;SDS011;30159;49.316;8.558;2022-12-07T14:59:40;6.57;;;4.13;;
44456;SDS011;30159;49.316;8.558;2022-12-07T15:02:08;6.97;;;4.80;;
44456;SDS011;30159;49.316;8.558;2022-12-07T15:04:37;6.77;;;5.30;;
44456;SDS011;30159;49.316;8.558;2022-12-07T15:07:04;5.57;;;4.47;;
44456;SDS011;30159;49.316;8.558;2022-12-07T15:09:32;5.30;;;4.80;;
44456;SDS011;30159;49.316;8.558;2022-12-07T15:11:59;5.93;;;5.33;;
44456;SDS011;30159;49.316;8.558;2022-12-07T15:14:30;8.97;;;5.60;;
44456;SDS011;30159;49.316;8.558;2022-12-07T15:16:56;10.20;;;5.80;;
44456;SDS011;30159;49.316;8.558;2022-12-07T15:19:23;8.20;;;5.67;;